Terminal Aerodrome Forecast
Issued by NWS

Home | Current Version | Previous Version | Graphics & Text | Print | Product List | Glossary On
Versions: 1 2 3 4 5 6 7 8 9 10 11 12 13 14 15 16 17 18
728
FTUS43 KIWX 081139
TAFSBN
TAF
KSBN 081139Z 0812/0912 24008KT P6SM SCT015 BKN100
     FM081330 24008KT P6SM OVC015
     FM081500 26010KT 4SM -SHSN OVC015
      TEMPO 0816/0819 2SM -SHSN
     FM081900 30013G18KT 5SM -SHSN OVC020
     FM090000 28010KT P6SM VCSH OVC020
     FM090600 31012KT 1SM -SHSN OVC010=

USA.gov is the U.S. government's official web portal to all federal, state and local government web resources and services.